Time;durP1;ratioP1;P1;durP2;ratioP2;P2;SDS_P1;SDS_P2;PMS_P1;PMS_P2;Temp;Humidity;BMP_temperature;BMP_pressure;BME280_temperature;BME280_humidity;BME280_pressure;Samples;Min_cycle;Max_cycle;Signal;HPM_P1;HPM_P2
2022/04/22 00:00:06;;;;;;;;;;;;;;;20.92;39.91;94956.22;2066291;28;1484;-68
2022/04/22 00:01:08;;;;;;;;;;;;;;;20.94;39.98;94950.63;2066216;28;1906;-68
2022/04/22 00:02:10;;;;;;;;;;;;;;;20.94;40.08;94950.63;2066397;28;1608;-68
2022/04/22 00:03:11;;;;;;;;;;;;;;;20.94;39.86;94954.16;2066845;28;1768;-68
2022/04/22 00:04:14;;;;;;;;;;;;;;;20.95;40.18;94957.63;2066709;28;1300;-69
2022/04/22 00:05:16;;;;;;;;;;;;;;;20.96;40.30;94961.94;2058054;28;1073;-68
2022/04/22 00:06:18;;;;;;;;;;;;;;;20.96;40.12;94959.25;2054389;28;1014;-64
2022/04/22 00:07:19;;;;;;;;;;;;;;;20.98;40.19;94966.03;2062079;28;1548;-66
2022/04/22 00:08:22;;;;;;;;;;;;;;;21.00;40.40;94969.31;2066674;28;1117;-66
2022/04/22 00:09:23;;;;;;;;;;;;;;;21.01;40.34;94967.44;2066498;28;1315;-67
2022/04/22 00:10:25;;;;;;;;;;;;;;;20.97;40.28;94967.06;2066593;28;1404;-67
2022/04/22 00:11:29;;;;;;;;;;;;;;;21.00;39.73;94973.84;2064966;28;1600;-66
2022/04/22 00:12:31;;;;;;;;;;;;;;;21.01;40.69;94973.59;2057931;28;1695;-67
2022/04/22 00:13:32;;;;;;;;;;;;;;;21.02;40.41;94974.41;2050064;28;1122;-66
2022/04/22 00:14:34;;;;;;;;;;;;;;;21.01;40.13;94975.47;2049664;28;1216;-67
2022/04/22 00:15:36;;;;;;;;;;;;;;;20.99;40.43;94977.53;2058284;28;1049;-64
2022/04/22 00:16:37;;;;;;;;;;;;;;;20.99;40.45;94975.66;2065918;28;1566;-66
2022/04/22 00:17:40;;;;;;;;;;;;;;;20.99;40.39;94972.19;2061509;28;1516;-67
2022/04/22 00:18:41;;;;;;;;;;;;;;;20.97;40.50;94967.06;2052783;28;1620;-66
2022/04/22 00:19:43;;;;;;;;;;;;;;;20.96;40.53;94960.06;2058118;28;1160;-66
2022/04/22 00:20:45;;;;;;;;;;;;;;;20.98;40.28;94955.34;2065065;28;1612;-66
2022/04/22 00:21:47;;;;;;;;;;;;;;;21.01;40.41;94948.75;2065910;28;1985;-67
2022/04/22 00:22:49;;;;;;;;;;;;;;;21.02;40.19;94947.72;2066238;28;1118;-67
2022/04/22 00:23:50;;;;;;;;;;;;;;;21.01;40.15;94940.75;2066162;28;1105;-67
2022/04/22 00:24:53;;;;;;;;;;;;;;;21.00;40.59;94937.25;2066625;28;1102;-67
2022/04/22 00:25:55;;;;;;;;;;;;;;;21.00;40.30;94937.25;2057819;28;1165;-71
2022/04/22 00:26:57;;;;;;;;;;;;;;;21.00;40.25;94934.59;2058346;28;1059;-70
2022/04/22 00:27:59;;;;;;;;;;;;;;;20.99;40.59;94922.25;2057462;28;1129;-70
2022/04/22 00:29:01;;;;;;;;;;;;;;;20.96;40.87;94924.53;2053529;28;1098;-71
2022/04/22 00:30:03;;;;;;;;;;;;;;;20.97;40.69;94923.50;2061012;28;1305;-71
2022/04/22 00:31:05;;;;;;;;;;;;;;;20.96;40.71;94916.53;2064333;28;1526;-70
2022/04/22 00:32:07;;;;;;;;;;;;;;;20.95;40.76;94913.03;2057933;28;1559;-71
2022/04/22 00:33:08;;;;;;;;;;;;;;;20.95;40.70;94909.56;2057901;28;1051;-69
2022/04/22 00:34:10;;;;;;;;;;;;;;;20.97;40.98;94915.47;2066284;28;1097;-69
2022/04/22 00:35:12;;;;;;;;;;;;;;;20.97;40.86;94912.81;2066372;28;998;-70
2022/04/22 00:36:13;;;;;;;;;;;;;;;20.96;40.62;94914.66;2066716;28;1002;-71
2022/04/22 00:37:15;;;;;;;;;;;;;;;20.96;40.98;94916.53;2066131;28;1548;-70
2022/04/22 00:38:16;;;;;;;;;;;;;;;20.98;40.80;94923.28;2057194;28;1793;-70
2022/04/22 00:39:18;;;;;;;;;;;;;;;20.98;40.88;94925.16;2057994;28;1525;-69
2022/04/22 00:40:19;;;;;;;;;;;;;;;20.97;40.87;94934.19;2053260;28;1559;-70
2022/04/22 00:41:22;;;;;;;;;;;;;;;20.97;40.87;94934.19;2051570;28;1895;-69
2022/04/22 00:42:26;;;;;;;;;;;;;;;20.96;40.91;94933.34;2066547;28;1018;-70
2022/04/22 00:43:28;;;;;;;;;;;;;;;20.98;40.97;94925.16;2065973;28;1508;-71
2022/04/22 00:44:29;;;;;;;;;;;;;;;20.96;40.86;94927.22;2065885;28;1677;-71
2022/04/22 00:45:31;;;;;;;;;;;;;;;20.97;41.09;94923.50;2065830;28;1089;-68
2022/04/22 00:46:32;;;;;;;;;;;;;;;20.96;40.81;94927.22;2065864;28;1617;-67
2022/04/22 00:47:34;;;;;;;;;;;;;;;20.96;40.94;94929.88;2065740;28;1556;-67
2022/04/22 00:48:36;;;;;;;;;;;;;;;20.97;41.18;94926.16;2057949;28;1586;-67
2022/04/22 00:49:38;;;;;;;;;;;;;;;20.96;41.15;94927.22;2066799;28;1048;-67
2022/04/22 00:50:40;;;;;;;;;;;;;;;20.96;40.97;94924.53;2057282;28;1570;-67
2022/04/22 00:51:41;;;;;;;;;;;;;;;20.98;41.25;94935.84;2053136;28;1590;-67
2022/04/22 00:52:43;;;;;;;;;;;;;;;20.98;41.09;94925.16;2060631;28;1111;-69
2022/04/22 00:53:46;;;;;;;;;;;;;;;20.97;41.40;94928.84;2057264;28;1576;-68
2022/04/22 00:54:48;;;;;;;;;;;;;;;20.96;41.08;94912.00;2058070;28;1162;-68
2022/04/22 00:55:50;;;;;;;;;;;;;;;20.96;41.08;94916.53;2057454;28;1141;-70
2022/04/22 00:56:52;;;;;;;;;;;;;;;20.96;41.12;94911.19;2057648;28;1613;-68
2022/04/22 00:57:54;;;;;;;;;;;;;;;20.96;41.39;94916.53;2057790;28;1345;-68
2022/04/22 00:58:57;;;;;;;;;;;;;;;20.94;41.08;94908.75;2057720;28;1669;-69
2022/04/22 00:59:59;;;;;;;;;;;;;;;20.95;41.25;94910.38;2057889;28;1282;-69
2022/04/22 01:01:02;;;;;;;;;;;;;;;20.95;41.21;94904.22;2056830;28;1489;-68
2022/04/22 01:02:03;;;;;;;;;;;;;;;20.97;41.06;94910.97;2060596;28;1930;-69
2022/04/22 01:03:08;;;;;;;;;;;;;;;20.97;41.16;94907.47;2062072;28;1540;-69
2022/04/22 01:09:47;;;;;;;;;;;;;;;20.96;41.15;94881.81;2066837;28;979;-69
2022/04/22 01:10:49;;;;;;;;;;;;;;;20.95;41.13;94874.84;2065681;28;1528;-66
2022/04/22 01:11:50;;;;;;;;;;;;;;;20.94;40.97;94878.50;2065593;28;1522;-68
2022/04/22 01:12:52;;;;;;;;;;;;;;;20.95;41.26;94882.84;2066341;28;1038;-69
2022/04/22 01:13:54;;;;;;;;;;;;;;;20.95;41.17;94883.66;2066647;28;1118;-66
2022/04/22 01:14:56;;;;;;;;;;;;;;;20.97;40.95;94897.63;2058981;28;1191;-66
2022/04/22 01:15:58;;;;;;;;;;;;;;;20.98;41.03;94893.09;2064105;28;993;-66
2022/04/22 01:17:00;;;;;;;;;;;;;;;20.97;41.35;94899.44;2066228;28;1308;-66
2022/04/22 01:18:03;;;;;;;;;;;;;;;20.97;41.32;94892.28;2066306;28;1180;-66
2022/04/22 01:19:04;;;;;;;;;;;;;;;20.96;40.96;94884.47;2066967;28;1561;-66
2022/04/22 01:20:06;;;;;;;;;;;;;;;20.95;41.32;94883.66;2065957;28;1531;-66
2022/04/22 01:21:07;;;;;;;;;;;;;;;20.96;41.18;94879.13;2064790;28;1510;-66
2022/04/22 01:22:09;;;;;;;;;;;;;;;20.96;41.30;94879.13;2065367;28;2049;-66
2022/04/22 01:23:11;;;;;;;;;;;;;;;20.96;41.18;94873.78;2065796;28;1038;-66
2022/04/22 01:24:12;;;;;;;;;;;;;;;20.98;41.32;94877.06;2065965;28;1089;-70
2022/04/22 01:25:14;;;;;;;;;;;;;;;20.98;41.07;94867.19;2065657;28;993;-67
2022/04/22 01:26:15;;;;;;;;;;;;;;;20.98;41.50;94863.72;2060542;28;1081;-67
2022/04/22 01:27:17;;;;;;;;;;;;;;;20.97;41.47;94854.88;2063285;28;1122;-68
2022/04/22 01:28:20;;;;;;;;;;;;;;;20.96;41.33;94850.56;2066390;28;1081;-67
2022/04/22 01:29:22;;;;;;;;;;;;;;;20.97;41.25;94838.84;2066314;28;1077;-67
2022/04/22 01:30:23;;;;;;;;;;;;;;;20.97;41.19;94830.00;2065490;28;1608;-67
2022/04/22 01:31:26;;;;;;;;;;;;;;;20.98;41.33;94829.00;2064361;28;1417;-64
2022/04/22 01:32:29;;;;;;;;;;;;;;;20.99;41.23;94819.94;2065914;28;1383;-61
2022/04/22 01:33:30;;;;;;;;;;;;;;;21.00;41.43;94824.25;2065776;28;1537;-61
2022/04/22 01:34:32;;;;;;;;;;;;;;;21.00;41.08;94819.72;2064759;28;1708;-62
2022/04/22 01:35:34;;;;;;;;;;;;;;;20.98;41.29;94824.47;2066049;28;979;-65
2022/04/22 01:36:36;;;;;;;;;;;;;;;21.00;41.15;94819.72;2065861;28;1480;-63
2022/04/22 01:37:37;;;;;;;;;;;;;;;20.99;41.50;94809.25;2059231;28;1485;-64
2022/04/22 01:38:39;;;;;;;;;;;;;;;20.99;41.56;94809.25;2063209;28;1258;-61
2022/04/22 01:39:40;;;;;;;;;;;;;;;20.98;41.37;94815.63;2065985;28;1049;-61
2022/04/22 01:40:42;;;;;;;;;;;;;;;20.98;41.66;94812.97;2066323;28;1346;-61
2022/04/22 01:41:43;;;;;;;;;;;;;;;20.97;41.64;94806.81;2065327;28;1895;-60
2022/04/22 01:42:45;;;;;;;;;;;;;;;20.98;41.36;94819.13;2065867;28;1184;-62
2022/04/22 01:43:47;;;;;;;;;;;;;;;20.99;41.46;94819.94;2065948;28;1177;-64
2022/04/22 01:44:49;;;;;;;;;;;;;;;21.00;41.65;94813.56;2065586;28;1045;-63
2022/04/22 01:45:52;;;;;;;;;;;;;;;20.99;41.64;94820.75;2065768;28;1612;-63
2022/04/22 01:46:55;;;;;;;;;;;;;;;20.99;41.37;94826.09;2057906;28;1535;-62
2022/04/22 01:47:56;;;;;;;;;;;;;;;21.00;41.53;94827.72;2058480;28;1630;-63
2022/04/22 01:48:58;;;;;;;;;;;;;;;21.00;41.38;94826.94;2060297;28;1029;-66
2022/04/22 01:50:00;;;;;;;;;;;;;;;21.02;41.40;94824.81;2061945;28;1492;-61
2022/04/22 01:51:02;;;;;;;;;;;;;;;21.04;41.41;94833.44;2065300;28;1622;-63
2022/04/22 01:52:03;;;;;;;;;;;;;;;21.02;41.60;94836.31;2064605;28;1516;-62
2022/04/22 01:53:06;;;;;;;;;;;;;;;21.02;41.47;94840.84;2056955;28;1389;-62
2022/04/22 01:54:08;;;;;;;;;;;;;;;20.99;41.53;94838.63;2057874;28;998;-62
2022/04/22 01:55:09;;;;;;;;;;;;;;;20.98;41.62;94845.00;2065884;28;1392;-62
2022/04/22 01:56:11;;;;;;;;;;;;;;;20.97;41.89;94844.19;2065780;28;1109;-61
2022/04/22 01:57:12;;;;;;;;;;;;;;;20.95;41.80;94840.91;2065807;28;2004;-63
2022/04/22 01:58:14;;;;;;;;;;;;;;;20.95;41.90;94840.13;2057320;28;994;-62
2022/04/22 01:59:16;;;;;;;;;;;;;;;20.94;41.70;94841.97;2049163;28;1496;-63
2022/04/22 02:00:17;;;;;;;;;;;;;;;20.98;41.79;94847.69;2051900;28;1145;-64
2022/04/22 02:01:19;;;;;;;;;;;;;;;20.97;41.70;94838.84;2060143;28;1683;-62
2022/04/22 02:02:20;;;;;;;;;;;;;;;21.00;41.49;94846.44;2065745;28;1994;-63
2022/04/22 02:03:22;;;;;;;;;;;;;;;20.99;41.82;94846.63;2065163;28;1112;-65
2022/04/22 02:04:24;;;;;;;;;;;;;;;21.00;41.49;94848.28;2057248;28;1026;-63
2022/04/22 02:05:25;;;;;;;;;;;;;;;21.01;41.64;94844.56;2057179;28;1550;-63
2022/04/22 02:06:28;;;;;;;;;;;;;;;20.99;41.77;94847.44;2065480;28;1554;-63
2022/04/22 02:07:29;;;;;;;;;;;;;;;21.00;41.76;94859.78;2065146;28;1074;-64
2022/04/22 02:08:31;;;;;;;;;;;;;;;21.00;41.58;94862.47;2065856;28;1089;-64
2022/04/22 02:09:32;;;;;;;;;;;;;;;20.99;41.93;94858.13;2065766;28;990;-64
2022/04/22 02:10:34;;;;;;;;;;;;;;;20.99;41.80;94870.69;2064928;28;1612;-64
2022/04/22 02:11:35;;;;;;;;;;;;;;;20.99;41.54;94879.50;2051942;28;1614;-63
2022/04/22 02:12:37;;;;;;;;;;;;;;;20.98;41.78;94880.56;2052081;28;1539;-62
2022/04/22 02:13:38;;;;;;;;;;;;;;;20.98;41.58;94877.88;2065682;28;1118;-62
2022/04/22 02:14:40;;;;;;;;;;;;;;;20.98;41.76;94877.06;2065251;28;1109;-63
2022/04/22 02:15:42;;;;;;;;;;;;;;;20.98;41.68;94879.75;2065642;28;1732;-60
2022/04/22 02:16:43;;;;;;;;;;;;;;;21.00;41.86;94883.84;2065628;28;1157;-61
2022/04/22 02:17:45;;;;;;;;;;;;;;;21.02;41.53;94888.94;2065727;28;1045;-62
2022/04/22 02:18:49;;;;;;;;;;;;;;;21.05;41.49;94898.38;2065884;28;998;-65
2022/04/22 02:19:50;;;;;;;;;;;;;;;21.05;41.39;94893.84;2059791;28;1516;-62
2022/04/22 02:20:53;;;;;;;;;;;;;;;21.04;41.66;94884.22;2056874;28;1091;-63
2022/04/22 02:21:55;;;;;;;;;;;;;;;21.06;41.76;94883.97;2063000;28;1524;-63
2022/04/22 02:22:57;;;;;;;;;;;;;;;21.05;41.73;94885.84;2061071;28;1999;-63
2022/04/22 02:23:58;;;;;;;;;;;;;;;21.05;41.18;94893.03;2061251;28;1046;-63
2022/04/22 02:25:00;;;;;;;;;;;;;;;21.03;41.83;94890.59;2056531;28;1776;-63
2022/04/22 02:26:02;;;;;;;;;;;;;;;21.02;41.71;94891.59;2057018;28;1106;-64
2022/04/22 02:28:34;;;;;;;;;;;;;;;21.01;41.88;94888.13;2065781;28;1061;-63
2022/04/22 02:29:37;;;;;;;;;;;;;;;21.01;41.57;94877.44;2057406;28;1057;-65
2022/04/22 02:30:38;;;;;;;;;;;;;;;21.02;41.61;94872.91;2057684;28;1110;-64
2022/04/22 02:31:40;;;;;;;;;;;;;;;21.00;41.95;94870.47;2055955;28;1472;-65
2022/04/22 02:32:42;;;;;;;;;;;;;;;21.02;41.75;94870.25;2057152;28;1067;-65
2022/04/22 02:33:43;;;;;;;;;;;;;;;21.02;41.82;94860.38;2065054;28;848;-67
2022/04/22 02:34:45;;;;;;;;;;;;;;;21.01;41.98;94857.94;2058234;28;1044;-64
2022/04/22 02:35:46;;;;;;;;;;;;;;;21.00;41.85;94854.44;2065461;28;1106;-64
2022/04/22 02:36:48;;;;;;;;;;;;;;;21.01;41.56;94849.91;2056064;28;1632;-65
2022/04/22 02:37:51;;;;;;;;;;;;;;;20.98;42.02;94848.50;2049230;28;1081;-64
2022/04/22 02:38:52;;;;;;;;;;;;;;;20.97;41.96;94836.19;2057396;28;1218;-65
2022/04/22 02:39:54;;;;;;;;;;;;;;;20.97;41.96;94838.00;2056779;28;1067;-64
2022/04/22 02:46:16;;;;;;;;;;;;;;;20.99;41.78;94852.78;2060715;28;1446;-65
2022/04/22 02:47:18;;;;;;;;;;;;;;;21.00;41.79;94850.97;2065198;28;1068;-65
2022/04/22 02:48:20;;;;;;;;;;;;;;;21.01;41.72;94845.38;2065046;28;1189;-65
2022/04/22 02:49:22;;;;;;;;;;;;;;;21.00;41.86;94842.94;2065712;28;1073;-67
2022/04/22 02:50:24;;;;;;;;;;;;;;;20.99;41.87;94847.44;2065101;28;1065;-65
2022/04/22 02:51:25;;;;;;;;;;;;;;;21.00;41.87;94853.63;2062440;28;1642;-65
2022/04/22 02:52:27;;;;;;;;;;;;;;;20.99;41.78;94847.44;2057163;28;1157;-65
2022/04/22 02:53:28;;;;;;;;;;;;;;;20.99;41.80;94847.44;2065226;28;1593;-65
2022/04/22 02:54:30;;;;;;;;;;;;;;;20.99;41.75;94843.97;2065533;28;1890;-66
2022/04/22 02:55:35;;;;;;;;;;;;;;;20.97;41.91;94849.53;2065146;28;1488;-65
2022/04/22 02:56:38;;;;;;;;;;;;;;;21.01;41.77;94850.72;2060966;28;1450;-65
2022/04/22 02:57:44;;;;;;;;;;;;;;;21.03;41.72;94845.19;2060379;28;1532;-64
2022/04/22 02:58:47;;;;;;;;;;;;;;;21.03;41.71;94842.50;2056580;28;1097;-63
2022/04/22 02:59:48;;;;;;;;;;;;;;;21.06;41.60;94844.75;2056910;28;1520;-64
2022/04/22 03:00:50;;;;;;;;;;;;;;;21.05;41.52;94844.94;2064588;28;1106;-63
2022/04/22 03:01:52;;;;;;;;;;;;;;;21.04;41.76;94841.47;2065354;28;1184;-65
2022/04/22 03:02:54;;;;;;;;;;;;;;;21.06;41.74;94842.06;2065193;28;1985;-65
2022/04/22 03:03:55;;;;;;;;;;;;;;;21.04;41.71;94841.47;2056710;28;1079;-63
2022/04/22 03:04:57;;;;;;;;;;;;;;;21.03;41.71;94853.19;2057156;28;1566;-63
2022/04/22 03:05:59;;;;;;;;;;;;;;;21.04;41.77;94851.34;2066228;28;1545;-65
2022/04/22 03:07:01;;;;;;;;;;;;;;;21.07;42.11;94850.91;2065958;28;1549;-63
2022/04/22 03:08:03;;;;;;;;;;;;;;;21.04;42.18;94849.47;2062854;28;1126;-63
2022/04/22 03:09:05;;;;;;;;;;;;;;;21.06;42.17;94838.56;2062106;28;1055;-63
2022/04/22 03:10:06;;;;;;;;;;;;;;;21.09;42.20;94851.50;2065250;28;1544;-63
2022/04/22 03:11:08;;;;;;;;;;;;;;;21.10;41.90;94845.94;2067174;28;1533;-63
2022/04/22 03:12:12;;;;;;;;;;;;;;;21.09;41.83;94849.66;2067263;28;1049;-64
2022/04/22 03:13:15;;;;;;;;;;;;;;;21.07;41.89;94849.03;2067017;28;1048;-63
2022/04/22 03:14:17;;;;;;;;;;;;;;;21.05;41.72;94851.09;2066815;28;1040;-63
2022/04/22 03:15:19;;;;;;;;;;;;;;;21.07;41.79;94853.56;2057951;28;1358;-64
2022/04/22 03:16:25;;;;;;;;;;;;;;;21.06;41.55;94857.25;2058655;28;1106;-64
2022/04/22 03:17:27;;;;;;;;;;;;;;;21.03;41.80;94853.19;2067140;28;1070;-63
2022/04/22 03:18:28;;;;;;;;;;;;;;;21.02;41.70;94857.69;2067259;28;1010;-64
2022/04/22 03:19:31;;;;;;;;;;;;;;;21.02;41.38;94857.69;2053467;28;1458;-65
2022/04/22 03:20:32;;;;;;;;;;;;;;;21.02;41.67;94862.22;2054019;28;1105;-63
2022/04/22 03:21:34;;;;;;;;;;;;;;;21.00;41.72;94865.13;2066603;28;1022;-63
2022/04/22 03:22:36;;;;;;;;;;;;;;;20.99;41.74;94862.66;2066966;28;1183;-64
2022/04/22 03:23:37;;;;;;;;;;;;;;;21.00;41.51;94861.66;2066537;28;1907;-63
2022/04/22 03:24:39;;;;;;;;;;;;;;;20.99;41.66;94862.66;2050184;28;1185;-64
2022/04/22 03:25:41;;;;;;;;;;;;;;;21.00;41.43;94872.34;2050633;28;1581;-64
2022/04/22 03:26:42;;;;;;;;;;;;;;;20.98;41.58;94869.88;2064987;28;1516;-64
2022/04/22 03:27:44;;;;;;;;;;;;;;;20.96;41.46;94871.94;2065119;28;1480;-64
2022/04/22 03:28:46;;;;;;;;;;;;;;;20.99;41.37;94874.16;2066523;28;1113;-64
2022/04/22 03:29:48;;;;;;;;;;;;;;;20.98;41.50;94885.88;2065378;28;1844;-64
2022/04/22 03:30:50;;;;;;;;;;;;;;;20.96;41.27;94869.25;2062747;28;1191;-63
2022/04/22 03:31:54;;;;;;;;;;;;;;;20.97;41.39;94870.06;2061499;28;1280;-63
2022/04/22 03:32:55;;;;;;;;;;;;;;;20.98;41.13;94879.75;2066379;28;1046;-60
2022/04/22 03:33:57;;;;;;;;;;;;;;;21.00;41.35;94894.50;2066616;28;1133;-60
2022/04/22 03:34:58;;;;;;;;;;;;;;;21.02;41.49;94884.41;2066490;28;1625;-61
2022/04/22 03:36:00;;;;;;;;;;;;;;;21.03;41.29;94863.88;2065866;28;1500;-61
2022/04/22 03:37:01;;;;;;;;;;;;;;;21.04;41.28;94854.00;2066658;28;1544;-62
2022/04/22 03:38:03;;;;;;;;;;;;;;;21.02;41.51;94856.88;2066819;28;1113;-61
2022/04/22 03:39:05;;;;;;;;;;;;;;;21.06;41.14;94878.63;2057831;28;1616;-60
2022/04/22 03:40:08;;;;;;;;;;;;;;;21.10;41.22;94883.34;2058181;28;1738;-60
2022/04/22 03:41:10;;;;;;;;;;;;;;;21.13;41.42;94882.88;2058223;28;1049;-59
2022/04/22 03:42:12;;;;;;;;;;;;;;;21.12;41.64;94875.09;2053892;28;1624;-60
2022/04/22 03:43:14;;;;;;;;;;;;;;;21.15;41.69;94872.81;2049984;28;2000;-59
2022/04/22 03:44:16;;;;;;;;;;;;;;;21.16;41.24;94874.44;2058303;28;1082;-60
2022/04/22 03:45:18;;;;;;;;;;;;;;;21.20;40.84;94873.00;2066832;28;1041;-59
2022/04/22 03:46:19;;;;;;;;;;;;;;;21.26;41.19;94886.53;2066974;28;851;-61
2022/04/22 03:47:21;;;;;;;;;;;;;;;21.25;41.70;94887.56;2066749;28;1089;-61
2022/04/22 03:48:23;;;;;;;;;;;;;;;21.25;40.81;94882.22;2065813;28;1511;-60
2022/04/22 03:49:24;;;;;;;;;;;;;;;21.26;41.08;94882.00;2065981;28;1569;-59
2022/04/22 03:50:26;;;;;;;;;;;;;;;21.27;40.78;94870.28;2066563;28;1196;-60
2022/04/22 03:51:27;;;;;;;;;;;;;;;21.26;41.34;94870.50;2065951;28;1026;-59
2022/04/22 03:52:29;;;;;;;;;;;;;;;21.27;42.09;94886.31;2066278;28;1038;-61
2022/04/22 03:53:31;;;;;;;;;;;;;;;21.29;41.96;94899.47;2062217;28;1519;-60
2022/04/22 03:54:32;;;;;;;;;;;;;;;21.28;41.81;94903.16;2056948;28;1674;-59
2022/04/22 03:55:34;;;;;;;;;;;;;;;21.29;41.65;94867.41;2059808;28;1731;-60
2022/04/22 03:58:11;;;;;;;;;;;;;;;21.31;41.68;94865.28;2066095;28;1783;-60
2022/04/22 03:59:12;;;;;;;;;;;;;;;21.30;42.28;94901.09;2064996;28;1515;-60
2022/04/22 04:00:14;;;;;;;;;;;;;;;21.30;42.05;94906.44;2066510;28;1628;-61
2022/04/22 04:01:16;;;;;;;;;;;;;;;21.34;40.93;94891.59;2055394;28;1630;-61
2022/04/22 04:02:17;;;;;;;;;;;;;;;21.31;41.81;94876.00;2057680;28;1560;-62
2022/04/22 04:03:20;;;;;;;;;;;;;;;21.31;40.80;94886.69;2055047;28;1898;-63
2022/04/22 04:04:21;;;;;;;;;;;;;;;21.22;41.25;94910.19;2057013;28;1349;-64
2022/04/22 04:05:23;;;;;;;;;;;;;;;21.18;41.31;94919.69;2056366;28;1540;-67
2022/04/22 04:06:26;;;;;;;;;;;;;;;21.14;41.66;94908.59;2063436;28;1609;-64
2022/04/22 04:07:27;;;;;;;;;;;;;;;21.12;41.72;94888.47;2064775;28;1288;-64
2022/04/22 04:08:29;;;;;;;;;;;;;;;21.10;41.64;94895.88;2057317;28;1592;-64
2022/04/22 04:16:11;;;;;;;;;;;;;;;21.09;41.71;94879.03;2061490;28;1282;-65
2022/04/22 04:17:14;;;;;;;;;;;;;;;21.08;41.74;94885.38;2061317;28;1190;-65
2022/04/22 04:18:16;;;;;;;;;;;;;;;21.05;41.80;94877.81;2066050;28;1060;-65
2022/04/22 04:23:18;;;;;;;;;;;;;;;21.02;41.55;94876.41;2066539;28;1977;-73
2022/04/22 04:24:21;;;;;;;;;;;;;;;21.05;42.45;94875.16;2066449;28;1094;-67
2022/04/22 04:25:23;;;;;;;;;;;;;;;21.14;41.81;94868.53;2057517;28;1669;-64
2022/04/22 04:26:25;;;;;;;;;;;;;;;21.19;43.24;94878.56;2058030;28;1513;-63
2022/04/22 04:27:28;;;;;;;;;;;;;;;21.11;42.91;94876.13;2062745;28;1349;-65
2022/04/22 04:28:32;;;;;;;;;;;;;;;21.16;43.27;94895.81;2061157;28;1687;-65
2022/04/22 04:29:34;;;;;;;;;;;;;;;21.14;43.59;94876.53;2064626;28;1461;-63
2022/04/22 04:30:40;;;;;;;;;;;;;;;21.11;43.66;94868.94;2065595;28;1344;-62
2022/04/22 04:31:41;;;;;;;;;;;;;;;21.11;43.64;94865.44;2065712;28;1614;-64
2022/04/22 04:32:43;;;;;;;;;;;;;;;21.10;43.70;94869.16;2058567;28;1278;-63
2022/04/22 04:33:44;;;;;;;;;;;;;;;21.08;43.76;94865.88;2058361;28;1141;-62
2022/04/22 04:34:50;;;;;;;;;;;;;;;21.10;43.74;94863.81;2064005;28;1573;-65
2022/04/22 04:35:51;;;;;;;;;;;;;;;21.07;43.68;94862.41;2065659;28;1460;-62
2022/04/22 04:36:53;;;;;;;;;;;;;;;21.09;43.38;94864.88;2066143;28;1564;-62
2022/04/22 04:37:54;;;;;;;;;;;;;;;21.08;43.66;94861.34;2057688;28;1157;-62
2022/04/22 04:38:56;;;;;;;;;;;;;;;21.07;43.71;94857.06;2051044;28;1572;-63
2022/04/22 04:39:58;;;;;;;;;;;;;;;21.09;43.77;94868.34;2060498;28;1457;-64
2022/04/22 04:41:00;;;;;;;;;;;;;;;21.09;43.46;94856.84;2066222;28;1560;-65
2022/04/22 04:42:02;;;;;;;;;;;;;;;21.09;43.46;94859.53;2065717;28;1067;-65
2022/04/22 04:43:05;;;;;;;;;;;;;;;21.08;43.78;94861.34;2065203;28;983;-63
2022/04/22 04:44:07;;;;;;;;;;;;;;;21.08;43.61;94860.53;2066448;28;1993;-64
2022/04/22 04:45:09;;;;;;;;;;;;;;;21.08;43.50;94860.53;2066025;28;1093;-63
2022/04/22 04:46:11;;;;;;;;;;;;;;;21.10;43.71;94853.13;2066111;28;1603;-64
2022/04/22 04:47:13;;;;;;;;;;;;;;;21.09;43.75;94852.31;2066671;28;1026;-63
2022/04/22 04:48:14;;;;;;;;;;;;;;;21.08;43.86;94847.19;2066592;28;1019;-63
2022/04/22 04:49:16;;;;;;;;;;;;;;;21.07;43.88;94851.72;2063558;28;1484;-63
2022/04/22 04:50:17;;;;;;;;;;;;;;;21.06;43.64;94863.44;2061193;28;1399;-62
2022/04/22 04:51:19;;;;;;;;;;;;;;;21.08;43.75;94866.69;2061058;28;1610;-63
2022/04/22 04:52:20;;;;;;;;;;;;;;;21.13;43.40;94864.19;2066166;28;1440;-62
2022/04/22 04:53:26;;;;;;;;;;;;;;;21.17;43.31;94859.22;2065591;28;1098;-63
2022/04/22 04:54:27;;;;;;;;;;;;;;;21.15;43.48;94864.78;2066057;28;1587;-63
2022/04/22 04:55:29;;;;;;;;;;;;;;;21.14;43.44;94860.50;2057538;28;1205;-66
2022/04/22 04:56:31;;;;;;;;;;;;;;;21.10;43.57;94859.28;2050242;28;1663;-62
2022/04/22 04:57:32;;;;;;;;;;;;;;;21.09;43.71;94863.00;2057230;28;1065;-62
2022/04/22 04:58:34;;;;;;;;;;;;;;;21.10;43.88;94869.97;2066050;28;1105;-62
2022/04/22 04:59:35;;;;;;;;;;;;;;;21.09;43.84;94860.34;2065083;28;1460;-64
2022/04/22 05:00:37;;;;;;;;;;;;;;;21.08;43.57;94871.22;2063726;28;1576;-64
2022/04/22 05:01:39;;;;;;;;;;;;;;;21.05;43.90;94863.66;2061069;28;1034;-64
2022/04/22 05:02:40;;;;;;;;;;;;;;;21.08;43.64;94866.69;2060692;28;1726;-63
2022/04/22 05:03:42;;;;;;;;;;;;;;;21.06;43.91;94868.78;2065395;28;1906;-63
2022/04/22 05:04:44;;;;;;;;;;;;;;;21.05;43.68;94869.81;2064706;28;1595;-64
2022/04/22 05:05:45;;;;;;;;;;;;;;;21.04;43.84;94865.50;2065102;28;1544;-63
2022/04/22 05:06:47;;;;;;;;;;;;;;;21.05;43.59;94867.13;2065951;28;1161;-62
2022/04/22 05:07:49;;;;;;;;;;;;;;;21.04;43.75;94870.84;2065882;28;1104;-64
2022/04/22 05:08:51;;;;;;;;;;;;;;;21.03;43.76;94861.22;2065994;28;1006;-64
2022/04/22 05:09:52;;;;;;;;;;;;;;;21.04;44.05;94854.00;2064081;28;1549;-64
2022/04/22 05:10:54;;;;;;;;;;;;;;;21.02;43.71;94851.53;2065765;28;1189;-61
2022/04/22 05:11:56;;;;;;;;;;;;;;;21.02;43.74;94848.88;2065081;28;1501;-61
2022/04/22 05:12:57;;;;;;;;;;;;;;;21.03;43.73;94837.16;2061339;28;1169;-61
2022/04/22 05:13:59;;;;;;;;;;;;;;;21.02;43.70;94830.97;2060647;28;1050;-63
2022/04/22 05:15:01;;;;;;;;;;;;;;;21.04;43.89;94824.63;2063629;28;1479;-63
2022/04/22 05:16:02;;;;;;;;;;;;;;;21.02;43.84;94824.81;2065984;28;1069;-61
2022/04/22 05:17:04;;;;;;;;;;;;;;;21.04;43.51;94825.44;2065960;28;1081;-62
2022/04/22 05:18:06;;;;;;;;;;;;;;;21.05;43.56;94823.56;2065808;28;1600;-62
2022/04/22 05:19:07;;;;;;;;;;;;;;;21.02;43.63;94817.63;2065743;28;1144;-62
2022/04/22 05:20:09;;;;;;;;;;;;;;;21.02;43.72;94819.47;2065347;28;1049;-62
2022/04/22 05:21:11;;;;;;;;;;;;;;;21.04;43.64;94816.59;2057125;28;1213;-62
2022/04/22 05:22:12;;;;;;;;;;;;;;;21.04;43.62;94824.63;2057377;28;1522;-62
2022/04/22 05:23:14;;;;;;;;;;;;;;;21.02;43.81;94820.31;2065519;28;1133;-62
2022/04/22 05:24:16;;;;;;;;;;;;;;;21.03;43.86;94826.47;2062259;28;1989;-63
2022/04/22 05:25:18;;;;;;;;;;;;;;;21.03;43.65;94823.81;2060022;28;1315;-64
2022/04/22 05:26:20;;;;;;;;;;;;;;;21.03;43.90;94821.16;2065312;28;1081;-63
2022/04/22 05:27:22;;;;;;;;;;;;;;;21.04;43.57;94820.09;2064994;28;1592;-62
2022/04/22 05:28:23;;;;;;;;;;;;;;;21.05;43.71;94821.72;2055930;28;1724;-62
2022/04/22 05:33:26;;;;;;;;;;;;;;;21.05;43.53;94788.84;2066478;28;1052;-61
2022/04/22 05:34:27;;;;;;;;;;;;;;;21.04;44.06;94779.22;2064794;28;1650;-63
2022/04/22 05:35:29;;;;;;;;;;;;;;;21.04;43.82;94774.69;2064921;28;1172;-62
2022/04/22 05:36:31;;;;;;;;;;;;;;;21.04;43.95;94766.66;2059116;28;1019;-62
2022/04/22 05:37:49;;;;;;;;;;;;;;;21.03;44.01;94765.03;2056965;28;1323;-61
2022/04/22 05:38:52;;;;;;;;;;;;;;;21.04;43.87;94755.97;2059204;28;1581;-62
2022/04/22 05:39:54;;;;;;;;;;;;;;;21.03;43.77;94746.34;2065682;28;1073;-63
2022/04/22 05:40:55;;;;;;;;;;;;;;;21.05;43.78;94738.09;2065584;28;1121;-62
2022/04/22 05:42:00;;;;;;;;;;;;;;;21.05;43.92;94735.44;2056886;28;1113;-62
2022/04/22 05:43:03;;;;;;;;;;;;;;;21.05;43.64;94722.06;2049569;28;1061;-64
2022/04/22 05:44:04;;;;;;;;;;;;;;;21.03;43.77;94708.94;2048750;28;1946;-62
2022/04/22 05:45:10;;;;;;;;;;;;;;;21.07;43.91;94702.13;2056796;28;1661;-61
2022/04/22 05:46:12;;;;;;;;;;;;;;;21.08;43.86;94682.38;2056743;28;1130;-62
2022/04/22 05:47:13;;;;;;;;;;;;;;;21.11;43.81;94678.44;2052747;28;1098;-62
2022/04/22 05:48:15;;;;;;;;;;;;;;;21.13;44.14;94663.81;2060290;28;1120;-61
2022/04/22 05:49:18;;;;;;;;;;;;;;;21.14;44.17;94665.47;2063278;28;1738;-68
2022/04/22 05:50:21;;;;;;;;;;;;;;;21.14;38.75;94672.66;2056045;28;1517;-64
2022/04/22 05:51:22;;;;;;;;;;;;;;;19.67;38.82;94678.41;2057603;28;1025;-63
2022/04/22 05:52:24;;;;;;;;;;;;;;;18.90;39.63;94693.47;2065163;28;1673;-63
2022/04/22 05:53:25;;;;;;;;;;;;;;;18.37;40.75;94699.63;2057252;28;994;-63
2022/04/22 05:54:27;;;;;;;;;;;;;;;18.01;41.15;94695.53;2057443;28;1199;-63
2022/04/22 05:55:29;;;;;;;;;;;;;;;17.57;41.57;94694.19;2065189;28;1130;-62